sensor_id;sensor_type;location;lat;lon;timestamp;temperature;humidity
3023;DHT22;1521;53.584;9.938;2024-02-26T00:02:15;3.10;99.90
3023;DHT22;1521;53.584;9.938;2024-02-26T00:04:41;3.00;99.90
3023;DHT22;1521;53.584;9.938;2024-02-26T00:07:07;3.00;99.90
3023;DHT22;1521;53.584;9.938;2024-02-26T00:09:32;2.90;99.90
3023;DHT22;1521;53.584;9.938;2024-02-26T00:12:02;2.90;99.90
3023;DHT22;1521;53.584;9.938;2024-02-26T00:14:29;2.80;99.90
3023;DHT22;1521;53.584;9.938;2024-02-26T00:16:55;2.80;99.90
3023;DHT22;1521;53.584;9.938;2024-02-26T00:19:20;2.70;99.90
3023;DHT22;1521;53.584;9.938;2024-02-26T00:21:46;2.70;99.90
3023;DHT22;1521;53.584;9.938;2024-02-26T00:24:11;2.60;99.90
3023;DHT22;1521;53.584;9.938;2024-02-26T00:26:37;2.70;99.90
3023;DHT22;1521;53.584;9.938;2024-02-26T00:29:03;2.70;99.90
3023;DHT22;1521;53.584;9.938;2024-02-26T00:31:28;2.60;99.90
3023;DHT22;1521;53.584;9.938;2024-02-26T00:33:54;2.60;99.90
3023;DHT22;1521;53.584;9.938;2024-02-26T00:36:19;2.50;99.90
3023;DHT22;1521;53.584;9.938;2024-02-26T00:38:45;2.50;99.90
3023;DHT22;1521;53.584;9.938;2024-02-26T00:41:16;2.40;99.90
3023;DHT22;1521;53.584;9.938;2024-02-26T00:43:42;2.40;99.90
3023;DHT22;1521;53.584;9.938;2024-02-26T00:46:08;2.30;99.90
3023;DHT22;1521;53.584;9.938;2024-02-26T00:48:33;2.20;99.90
3023;DHT22;1521;53.584;9.938;2024-02-26T00:50:59;2.20;99.90
3023;DHT22;1521;53.584;9.938;2024-02-26T00:53:24;2.10;99.90
3023;DHT22;1521;53.584;9.938;2024-02-26T00:55:50;2.00;99.90
3023;DHT22;1521;53.584;9.938;2024-02-26T00:58:16;2.00;99.90
3023;DHT22;1521;53.584;9.938;2024-02-26T01:00:42;2.00;99.90
3023;DHT22;1521;53.584;9.938;2024-02-26T01:03:07;2.00;99.90
3023;DHT22;1521;53.584;9.938;2024-02-26T01:05:33;1.90;99.90
3023;DHT22;1521;53.584;9.938;2024-02-26T01:07:59;1.90;99.90
3023;DHT22;1521;53.584;9.938;2024-02-26T01:10:24;1.90;99.90
3023;DHT22;1521;53.584;9.938;2024-02-26T01:12:50;1.80;99.90
3023;DHT22;1521;53.584;9.938;2024-02-26T01:15:15;1.80;99.90
3023;DHT22;1521;53.584;9.938;2024-02-26T01:17:41;1.80;99.90
3023;DHT22;1521;53.584;9.938;2024-02-26T01:20:07;1.80;99.90
3023;DHT22;1521;53.584;9.938;2024-02-26T01:22:34;1.70;99.90
3023;DHT22;1521;53.584;9.938;2024-02-26T01:24:59;1.70;99.90
3023;DHT22;1521;53.584;9.938;2024-02-26T01:27:25;1.60;99.90
3023;DHT22;1521;53.584;9.938;2024-02-26T01:29:52;1.60;99.90
3023;DHT22;1521;53.584;9.938;2024-02-26T01:32:18;1.60;99.90
3023;DHT22;1521;53.584;9.938;2024-02-26T01:34:45;1.50;99.90
3023;DHT22;1521;53.584;9.938;2024-02-26T01:37:10;1.50;99.90
3023;DHT22;1521;53.584;9.938;2024-02-26T01:39:36;1.50;99.90
3023;DHT22;1521;53.584;9.938;2024-02-26T01:42:02;1.50;99.90
3023;DHT22;1521;53.584;9.938;2024-02-26T01:44:27;1.40;99.90
3023;DHT22;1521;53.584;9.938;2024-02-26T01:46:53;1.40;99.90
3023;DHT22;1521;53.584;9.938;2024-02-26T01:49:19;1.40;99.90
3023;DHT22;1521;53.584;9.938;2024-02-26T01:51:45;1.40;99.90
3023;DHT22;1521;53.584;9.938;2024-02-26T01:54:11;1.40;99.90
3023;DHT22;1521;53.584;9.938;2024-02-26T01:56:39;1.40;99.90
3023;DHT22;1521;53.584;9.938;2024-02-26T01:59:05;1.40;99.90
3023;DHT22;1521;53.584;9.938;2024-02-26T02:01:34;1.40;99.90
3023;DHT22;1521;53.584;9.938;2024-02-26T02:04:00;1.30;99.90
3023;DHT22;1521;53.584;9.938;2024-02-26T02:06:26;1.20;99.90
3023;DHT22;1521;53.584;9.938;2024-02-26T02:08:54;1.20;99.90
3023;DHT22;1521;53.584;9.938;2024-02-26T02:11:20;1.20;99.90
3023;DHT22;1521;53.584;9.938;2024-02-26T02:13:46;1.20;99.90
3023;DHT22;1521;53.584;9.938;2024-02-26T02:16:12;1.10;99.90
3023;DHT22;1521;53.584;9.938;2024-02-26T02:18:37;1.00;99.90
3023;DHT22;1521;53.584;9.938;2024-02-26T02:21:03;0.90;99.90
3023;DHT22;1521;53.584;9.938;2024-02-26T02:23:29;0.90;99.90
3023;DHT22;1521;53.584;9.938;2024-02-26T02:25:56;0.90;99.90
3023;DHT22;1521;53.584;9.938;2024-02-26T02:28:23;0.90;99.90
3023;DHT22;1521;53.584;9.938;2024-02-26T02:30:50;0.90;99.90
3023;DHT22;1521;53.584;9.938;2024-02-26T02:33:16;1.00;99.90
3023;DHT22;1521;53.584;9.938;2024-02-26T02:35:42;1.00;99.90
3023;DHT22;1521;53.584;9.938;2024-02-26T02:38:08;1.00;99.90
3023;DHT22;1521;53.584;9.938;2024-02-26T02:40:34;1.00;99.90
3023;DHT22;1521;53.584;9.938;2024-02-26T02:42:59;1.00;99.90
3023;DHT22;1521;53.584;9.938;2024-02-26T02:45:27;1.00;99.90
3023;DHT22;1521;53.584;9.938;2024-02-26T02:47:53;1.00;99.90
3023;DHT22;1521;53.584;9.938;2024-02-26T02:50:18;1.00;99.90
3023;DHT22;1521;53.584;9.938;2024-02-26T02:52:44;1.00;99.90
3023;DHT22;1521;53.584;9.938;2024-02-26T02:55:09;1.00;99.90
3023;DHT22;1521;53.584;9.938;2024-02-26T02:57:35;1.00;99.90
3023;DHT22;1521;53.584;9.938;2024-02-26T03:00:07;1.00;99.90
3023;DHT22;1521;53.584;9.938;2024-02-26T03:02:32;1.00;99.90
3023;DHT22;1521;53.584;9.938;2024-02-26T03:05:01;1.00;99.90
3023;DHT22;1521;53.584;9.938;2024-02-26T03:07:27;1.00;99.90
3023;DHT22;1521;53.584;9.938;2024-02-26T03:09:53;1.00;99.90
3023;DHT22;1521;53.584;9.938;2024-02-26T03:12:18;1.00;99.90
3023;DHT22;1521;53.584;9.938;2024-02-26T03:14:44;1.10;99.90
3023;DHT22;1521;53.584;9.938;2024-02-26T03:17:09;1.10;99.90
3023;DHT22;1521;53.584;9.938;2024-02-26T03:19:35;1.10;99.90
3023;DHT22;1521;53.584;9.938;2024-02-26T03:22:01;1.10;99.90
3023;DHT22;1521;53.584;9.938;2024-02-26T03:24:26;1.10;99.90
3023;DHT22;1521;53.584;9.938;2024-02-26T03:26:52;1.10;99.90
3023;DHT22;1521;53.584;9.938;2024-02-26T03:29:17;1.10;99.90
3023;DHT22;1521;53.584;9.938;2024-02-26T03:31:43;1.00;99.90
3023;DHT22;1521;53.584;9.938;2024-02-26T03:34:08;0.90;99.90
3023;DHT22;1521;53.584;9.938;2024-02-26T03:36:34;1.00;99.90
3023;DHT22;1521;53.584;9.938;2024-02-26T03:39:00;0.90;99.90
3023;DHT22;1521;53.584;9.938;2024-02-26T03:41:25;0.80;99.90
3023;DHT22;1521;53.584;9.938;2024-02-26T03:43:51;0.80;99.90
3023;DHT22;1521;53.584;9.938;2024-02-26T03:46:17;0.80;99.90
3023;DHT22;1521;53.584;9.938;2024-02-26T03:48:42;0.80;99.90
3023;DHT22;1521;53.584;9.938;2024-02-26T03:51:09;0.70;99.90
3023;DHT22;1521;53.584;9.938;2024-02-26T03:53:35;0.70;99.90
3023;DHT22;1521;53.584;9.938;2024-02-26T03:56:05;0.70;99.90
3023;DHT22;1521;53.584;9.938;2024-02-26T03:58:31;0.70;99.90
3023;DHT22;1521;53.584;9.938;2024-02-26T04:00:57;0.70;99.90
3023;DHT22;1521;53.584;9.938;2024-02-26T04:03:22;0.70;99.90
3023;DHT22;1521;53.584;9.938;2024-02-26T04:05:48;0.70;99.90
3023;DHT22;1521;53.584;9.938;2024-02-26T04:08:14;0.80;99.90
3023;DHT22;1521;53.584;9.938;2024-02-26T04:10:39;0.80;99.90
3023;DHT22;1521;53.584;9.938;2024-02-26T04:13:06;0.80;99.90
3023;DHT22;1521;53.584;9.938;2024-02-26T04:15:32;0.90;99.90
3023;DHT22;1521;53.584;9.938;2024-02-26T04:17:58;0.90;99.90
3023;DHT22;1521;53.584;9.938;2024-02-26T04:20:24;0.90;99.90
3023;DHT22;1521;53.584;9.938;2024-02-26T04:22:49;0.90;99.90
3023;DHT22;1521;53.584;9.938;2024-02-26T04:25:15;0.80;99.90
3023;DHT22;1521;53.584;9.938;2024-02-26T04:27:40;0.80;99.90
3023;DHT22;1521;53.584;9.938;2024-02-26T04:30:07;0.70;99.90
3023;DHT22;1521;53.584;9.938;2024-02-26T04:32:33;0.70;99.90
3023;DHT22;1521;53.584;9.938;2024-02-26T04:35:02;0.70;99.90
3023;DHT22;1521;53.584;9.938;2024-02-26T04:37:28;0.70;99.90
3023;DHT22;1521;53.584;9.938;2024-02-26T04:39:58;0.60;99.90
3023;DHT22;1521;53.584;9.938;2024-02-26T04:42:23;0.70;99.90
3023;DHT22;1521;53.584;9.938;2024-02-26T04:44:49;0.70;99.90
3023;DHT22;1521;53.584;9.938;2024-02-26T04:47:14;0.70;99.90
3023;DHT22;1521;53.584;9.938;2024-02-26T04:49:41;0.70;99.90
3023;DHT22;1521;53.584;9.938;2024-02-26T04:52:06;0.70;99.90
3023;DHT22;1521;53.584;9.938;2024-02-26T04:54:32;0.70;99.90
3023;DHT22;1521;53.584;9.938;2024-02-26T04:56:57;0.70;99.90
3023;DHT22;1521;53.584;9.938;2024-02-26T04:59:23;0.80;99.90
3023;DHT22;1521;53.584;9.938;2024-02-26T05:01:48;0.80;99.90
3023;DHT22;1521;53.584;9.938;2024-02-26T05:04:14;0.70;99.90
3023;DHT22;1521;53.584;9.938;2024-02-26T05:06:39;0.70;99.90
3023;DHT22;1521;53.584;9.938;2024-02-26T05:09:05;0.70;99.90
3023;DHT22;1521;53.584;9.938;2024-02-26T05:11:31;0.70;99.90
3023;DHT22;1521;53.584;9.938;2024-02-26T05:13:57;0.70;99.90
3023;DHT22;1521;53.584;9.938;2024-02-26T05:16:22;0.60;99.90
3023;DHT22;1521;53.584;9.938;2024-02-26T05:18:50;0.60;99.90
3023;DHT22;1521;53.584;9.938;2024-02-26T05:21:15;0.60;99.90
3023;DHT22;1521;53.584;9.938;2024-02-26T05:23:41;0.60;99.90
3023;DHT22;1521;53.584;9.938;2024-02-26T05:26:09;0.60;99.90
3023;DHT22;1521;53.584;9.938;2024-02-26T05:28:34;0.60;99.90
3023;DHT22;1521;53.584;9.938;2024-02-26T05:31:00;0.60;99.90
3023;DHT22;1521;53.584;9.938;2024-02-26T05:33:26;0.60;99.90
3023;DHT22;1521;53.584;9.938;2024-02-26T05:35:52;0.60;99.90
3023;DHT22;1521;53.584;9.938;2024-02-26T05:38:17;0.60;99.90
3023;DHT22;1521;53.584;9.938;2024-02-26T05:40:43;0.60;99.90
3023;DHT22;1521;53.584;9.938;2024-02-26T05:43:08;0.60;99.90
3023;DHT22;1521;53.584;9.938;2024-02-26T05:45:34;0.60;99.90
3023;DHT22;1521;53.584;9.938;2024-02-26T05:47:59;0.60;99.90
3023;DHT22;1521;53.584;9.938;2024-02-26T05:50:25;0.60;99.90
3023;DHT22;1521;53.584;9.938;2024-02-26T05:52:50;0.60;99.90
3023;DHT22;1521;53.584;9.938;2024-02-26T05:55:16;0.60;99.90
3023;DHT22;1521;53.584;9.938;2024-02-26T05:57:42;0.60;99.90
3023;DHT22;1521;53.584;9.938;2024-02-26T06:00:07;0.60;99.90
3023;DHT22;1521;53.584;9.938;2024-02-26T06:02:33;0.60;99.90
3023;DHT22;1521;53.584;9.938;2024-02-26T06:04:59;0.60;99.90
3023;DHT22;1521;53.584;9.938;2024-02-26T06:07:24;0.60;99.90
3023;DHT22;1521;53.584;9.938;2024-02-26T06:09:50;0.70;99.90
3023;DHT22;1521;53.584;9.938;2024-02-26T06:12:16;0.80;99.90
3023;DHT22;1521;53.584;9.938;2024-02-26T06:14:44;0.80;99.90
3023;DHT22;1521;53.584;9.938;2024-02-26T06:17:10;0.80;99.90
3023;DHT22;1521;53.584;9.938;2024-02-26T06:19:35;0.80;99.90
3023;DHT22;1521;53.584;9.938;2024-02-26T06:22:01;0.90;99.90
3023;DHT22;1521;53.584;9.938;2024-02-26T06:24:26;0.90;99.90
3023;DHT22;1521;53.584;9.938;2024-02-26T06:26:52;0.90;99.90
3023;DHT22;1521;53.584;9.938;2024-02-26T06:29:17;0.90;99.90
3023;DHT22;1521;53.584;9.938;2024-02-26T06:31:43;0.90;99.90
3023;DHT22;1521;53.584;9.938;2024-02-26T06:34:09;1.00;99.90
3023;DHT22;1521;53.584;9.938;2024-02-26T06:36:34;1.00;99.90
3023;DHT22;1521;53.584;9.938;2024-02-26T06:39:00;1.00;99.90
3023;DHT22;1521;53.584;9.938;2024-02-26T06:41:26;1.00;99.90
3023;DHT22;1521;53.584;9.938;2024-02-26T06:43:55;1.00;99.90
3023;DHT22;1521;53.584;9.938;2024-02-26T06:46:21;1.00;99.90
3023;DHT22;1521;53.584;9.938;2024-02-26T06:48:48;1.10;99.90
3023;DHT22;1521;53.584;9.938;2024-02-26T06:51:14;1.10;99.90
3023;DHT22;1521;53.584;9.938;2024-02-26T06:53:39;1.10;99.90
3023;DHT22;1521;53.584;9.938;2024-02-26T06:56:05;1.10;99.90
3023;DHT22;1521;53.584;9.938;2024-02-26T06:58:30;1.20;99.90
3023;DHT22;1521;53.584;9.938;2024-02-26T07:00:56;1.20;99.90
3023;DHT22;1521;53.584;9.938;2024-02-26T07:03:21;1.30;99.90
3023;DHT22;1521;53.584;9.938;2024-02-26T07:05:48;1.30;99.90
3023;DHT22;1521;53.584;9.938;2024-02-26T07:08:14;1.40;99.90
3023;DHT22;1521;53.584;9.938;2024-02-26T07:10:39;1.40;99.90
3023;DHT22;1521;53.584;9.938;2024-02-26T07:13:05;1.50;99.90
3023;DHT22;1521;53.584;9.938;2024-02-26T07:15:30;1.50;99.90
3023;DHT22;1521;53.584;9.938;2024-02-26T07:17:57;1.60;99.90
3023;DHT22;1521;53.584;9.938;2024-02-26T07:20:28;1.60;99.90
3023;DHT22;1521;53.584;9.938;2024-02-26T07:22:54;1.60;99.90
3023;DHT22;1521;53.584;9.938;2024-02-26T07:25:19;1.70;99.90
3023;DHT22;1521;53.584;9.938;2024-02-26T07:27:46;1.70;99.90
3023;DHT22;1521;53.584;9.938;2024-02-26T07:30:12;1.80;99.90
3023;DHT22;1521;53.584;9.938;2024-02-26T07:32:38;1.80;99.90
3023;DHT22;1521;53.584;9.938;2024-02-26T07:35:04;1.90;99.90
3023;DHT22;1521;53.584;9.938;2024-02-26T07:37:30;2.00;99.90
3023;DHT22;1521;53.584;9.938;2024-02-26T07:39:56;2.00;99.90
3023;DHT22;1521;53.584;9.938;2024-02-26T07:42:21;2.10;99.90
3023;DHT22;1521;53.584;9.938;2024-02-26T07:44:47;2.20;99.90
3023;DHT22;1521;53.584;9.938;2024-02-26T07:47:12;2.30;99.90
3023;DHT22;1521;53.584;9.938;2024-02-26T07:49:39;2.30;99.90
3023;DHT22;1521;53.584;9.938;2024-02-26T07:52:04;2.40;99.90
3023;DHT22;1521;53.584;9.938;2024-02-26T07:54:30;2.60;99.90
3023;DHT22;1521;53.584;9.938;2024-02-26T07:56:56;2.60;99.90
3023;DHT22;1521;53.584;9.938;2024-02-26T07:59:21;2.70;99.90
3023;DHT22;1521;53.584;9.938;2024-02-26T08:01:50;2.70;99.90
3023;DHT22;1521;53.584;9.938;2024-02-26T08:04:16;2.80;99.90
3023;DHT22;1521;53.584;9.938;2024-02-26T08:06:42;2.80;99.90
3023;DHT22;1521;53.584;9.938;2024-02-26T08:09:08;2.80;99.90
3023;DHT22;1521;53.584;9.938;2024-02-26T08:11:34;2.80;99.90
3023;DHT22;1521;53.584;9.938;2024-02-26T08:14:00;2.90;99.90
3023;DHT22;1521;53.584;9.938;2024-02-26T08:16:25;3.00;99.90
3023;DHT22;1521;53.584;9.938;2024-02-26T08:18:51;3.00;99.90
3023;DHT22;1521;53.584;9.938;2024-02-26T08:21:16;3.10;99.90
3023;DHT22;1521;53.584;9.938;2024-02-26T08:23:43;3.20;99.90
3023;DHT22;1521;53.584;9.938;2024-02-26T08:26:09;3.30;99.90
3023;DHT22;1521;53.584;9.938;2024-02-26T08:28:37;3.30;99.90
3023;DHT22;1521;53.584;9.938;2024-02-26T08:31:03;3.40;99.90
3023;DHT22;1521;53.584;9.938;2024-02-26T08:33:28;3.40;99.90
3023;DHT22;1521;53.584;9.938;2024-02-26T08:35:54;3.40;99.90
3023;DHT22;1521;53.584;9.938;2024-02-26T08:38:20;3.30;99.90
3023;DHT22;1521;53.584;9.938;2024-02-26T08:40:45;3.30;99.90
3023;DHT22;1521;53.584;9.938;2024-02-26T08:43:11;3.40;99.90
3023;DHT22;1521;53.584;9.938;2024-02-26T08:45:36;3.50;99.90
3023;DHT22;1521;53.584;9.938;2024-02-26T08:48:02;3.50;99.90
3023;DHT22;1521;53.584;9.938;2024-02-26T08:50:28;3.50;99.90
3023;DHT22;1521;53.584;9.938;2024-02-26T08:52:54;3.50;99.90
3023;DHT22;1521;53.584;9.938;2024-02-26T08:55:19;3.50;99.90
3023;DHT22;1521;53.584;9.938;2024-02-26T08:57:46;3.60;99.90
3023;DHT22;1521;53.584;9.938;2024-02-26T09:00:12;3.60;94.90
3023;DHT22;1521;53.584;9.938;2024-02-26T09:02:38;3.70;99.90
3023;DHT22;1521;53.584;9.938;2024-02-26T09:05:08;3.80;99.90
3023;DHT22;1521;53.584;9.938;2024-02-26T09:07:34;3.90;99.90
3023;DHT22;1521;53.584;9.938;2024-02-26T09:09:59;3.90;99.90
3023;DHT22;1521;53.584;9.938;2024-02-26T09:12:25;4.00;99.90
3023;DHT22;1521;53.584;9.938;2024-02-26T09:14:51;4.10;99.90
3023;DHT22;1521;53.584;9.938;2024-02-26T09:17:16;4.30;99.90
3023;DHT22;1521;53.584;9.938;2024-02-26T09:19:42;4.30;99.90
3023;DHT22;1521;53.584;9.938;2024-02-26T09:22:08;4.50;99.90
3023;DHT22;1521;53.584;9.938;2024-02-26T09:24:33;4.60;99.90
3023;DHT22;1521;53.584;9.938;2024-02-26T09:26:59;4.60;69.60
3023;DHT22;1521;53.584;9.938;2024-02-26T09:29:25;4.70;1.00
3023;DHT22;1521;53.584;9.938;2024-02-26T09:31:51;4.80;1.00
3023;DHT22;1521;53.584;9.938;2024-02-26T09:34:17;4.90;1.00
3023;DHT22;1521;53.584;9.938;2024-02-26T09:36:43;5.00;1.00
3023;DHT22;1521;53.584;9.938;2024-02-26T09:39:08;5.00;1.00
3023;DHT22;1521;53.584;9.938;2024-02-26T09:41:37;5.20;1.00
3023;DHT22;1521;53.584;9.938;2024-02-26T09:44:05;5.30;1.00
3023;DHT22;1521;53.584;9.938;2024-02-26T09:46:30;5.30;1.00
3023;DHT22;1521;53.584;9.938;2024-02-26T09:48:57;5.30;1.00
3023;DHT22;1521;53.584;9.938;2024-02-26T09:51:26;5.40;1.00
3023;DHT22;1521;53.584;9.938;2024-02-26T09:53:52;5.40;99.90
3023;DHT22;1521;53.584;9.938;2024-02-26T09:56:18;5.40;99.90
3023;DHT22;1521;53.584;9.938;2024-02-26T09:58:44;5.50;1.00
3023;DHT22;1521;53.584;9.938;2024-02-26T10:01:17;5.50;99.90
3023;DHT22;1521;53.584;9.938;2024-02-26T10:03:44;5.60;99.90
3023;DHT22;1521;53.584;9.938;2024-02-26T10:06:11;5.50;1.00
3023;DHT22;1521;53.584;9.938;2024-02-26T10:08:37;5.50;1.00
3023;DHT22;1521;53.584;9.938;2024-02-26T10:11:07;5.60;1.00
3023;DHT22;1521;53.584;9.938;2024-02-26T10:13:35;5.60;1.00
3023;DHT22;1521;53.584;9.938;2024-02-26T10:16:01;5.60;1.00
3023;DHT22;1521;53.584;9.938;2024-02-26T10:18:45;5.70;14.50
3023;DHT22;1521;53.584;9.938;2024-02-26T10:21:11;5.80;99.90
3023;DHT22;1521;53.584;9.938;2024-02-26T10:23:36;5.90;1.00
3023;DHT22;1521;53.584;9.938;2024-02-26T10:26:02;6.00;99.90
3023;DHT22;1521;53.584;9.938;2024-02-26T10:28:29;6.00;99.90
3023;DHT22;1521;53.584;9.938;2024-02-26T10:30:55;6.10;99.90
3023;DHT22;1521;53.584;9.938;2024-02-26T10:33:20;6.10;1.00
3023;DHT22;1521;53.584;9.938;2024-02-26T10:35:47;6.20;1.00
3023;DHT22;1521;53.584;9.938;2024-02-26T10:38:12;6.30;65.70
3023;DHT22;1521;53.584;9.938;2024-02-26T10:40:39;6.40;1.00
3023;DHT22;1521;53.584;9.938;2024-02-26T10:43:05;6.50;99.90
3023;DHT22;1521;53.584;9.938;2024-02-26T10:45:32;6.60;99.90
3023;DHT22;1521;53.584;9.938;2024-02-26T10:47:57;6.80;1.00
3023;DHT22;1521;53.584;9.938;2024-02-26T10:50:23;7.00;99.90
3023;DHT22;1521;53.584;9.938;2024-02-26T10:52:49;7.20;22.00
3023;DHT22;1521;53.584;9.938;2024-02-26T10:55:18;7.30;99.90
3023;DHT22;1521;53.584;9.938;2024-02-26T10:57:45;7.60;99.90
3023;DHT22;1521;53.584;9.938;2024-02-26T11:00:15;7.70;99.90
3023;DHT22;1521;53.584;9.938;2024-02-26T11:02:41;7.80;1.00
3023;DHT22;1521;53.584;9.938;2024-02-26T11:05:11;8.00;1.10
3023;DHT22;1521;53.584;9.938;2024-02-26T11:07:37;8.40;99.90
3023;DHT22;1521;53.584;9.938;2024-02-26T11:10:04;8.60;99.90
3023;DHT22;1521;53.584;9.938;2024-02-26T11:12:34;9.00;22.20
3023;DHT22;1521;53.584;9.938;2024-02-26T11:15:03;9.40;99.90
3023;DHT22;1521;53.584;9.938;2024-02-26T11:17:29;9.60;99.90
3023;DHT22;1521;53.584;9.938;2024-02-26T11:19:59;9.80;99.90
3023;DHT22;1521;53.584;9.938;2024-02-26T11:22:25;9.90;99.90
3023;DHT22;1521;53.584;9.938;2024-02-26T11:24:55;10.20;99.90
3023;DHT22;1521;53.584;9.938;2024-02-26T11:27:53;10.40;95.50
3023;DHT22;1521;53.584;9.938;2024-02-26T11:30:20;10.30;87.50
3023;DHT22;1521;53.584;9.938;2024-02-26T11:32:47;11.40;30.90
3023;DHT22;1521;53.584;9.938;2024-02-26T11:35:13;10.20;35.60
3023;DHT22;1521;53.584;9.938;2024-02-26T11:37:41;10.50;46.30
3023;DHT22;1521;53.584;9.938;2024-02-26T11:40:11;10.70;27.10
3023;DHT22;1521;53.584;9.938;2024-02-26T11:42:43;11.00;12.60
3023;DHT22;1521;53.584;9.938;2024-02-26T11:48:14;11.00;1.00
3023;DHT22;1521;53.584;9.938;2024-02-26T11:50:46;10.70;1.00
3023;DHT22;1521;53.584;9.938;2024-02-26T11:58:40;10.10;1.00
3023;DHT22;1521;53.584;9.938;2024-02-26T12:01:07;9.90;1.00
3023;DHT22;1521;53.584;9.938;2024-02-26T12:03:54;9.80;1.00
3023;DHT22;1521;53.584;9.938;2024-02-26T12:06:20;9.70;3.50
3023;DHT22;1521;53.584;9.938;2024-02-26T12:08:46;9.70;15.60
3023;DHT22;1521;53.584;9.938;2024-02-26T12:11:15;9.70;39.20
3023;DHT22;1521;53.584;9.938;2024-02-26T12:13:41;9.60;42.80
3023;DHT22;1521;53.584;9.938;2024-02-26T12:16:07;9.60;20.50
3023;DHT22;1521;53.584;9.938;2024-02-26T12:18:34;9.50;20.80
3023;DHT22;1521;53.584;9.938;2024-02-26T12:21:03;9.90;11.20
3023;DHT22;1521;53.584;9.938;2024-02-26T12:23:29;9.30;25.60
3023;DHT22;1521;53.584;9.938;2024-02-26T12:25:59;9.20;22.20
3023;DHT22;1521;53.584;9.938;2024-02-26T12:28:31;10.70;26.60
3023;DHT22;1521;53.584;9.938;2024-02-26T12:30:57;9.30;37.80
3023;DHT22;1521;53.584;9.938;2024-02-26T12:33:25;9.40;44.40
3023;DHT22;1521;53.584;9.938;2024-02-26T12:35:52;9.40;37.60
3023;DHT22;1521;53.584;9.938;2024-02-26T12:38:17;9.50;44.60
3023;DHT22;1521;53.584;9.938;2024-02-26T12:40:45;9.50;43.50
3023;DHT22;1521;53.584;9.938;2024-02-26T12:43:10;9.40;36.50
3023;DHT22;1521;53.584;9.938;2024-02-26T12:45:40;9.50;47.20
3023;DHT22;1521;53.584;9.938;2024-02-26T12:48:06;9.50;48.20
3023;DHT22;1521;53.584;9.938;2024-02-26T12:50:32;9.30;29.00
3023;DHT22;1521;53.584;9.938;2024-02-26T12:52:58;9.20;29.00
3023;DHT22;1521;53.584;9.938;2024-02-26T12:55:24;9.20;33.90
3023;DHT22;1521;53.584;9.938;2024-02-26T12:57:52;9.10;42.90
3023;DHT22;1521;53.584;9.938;2024-02-26T13:00:23;9.10;42.10
3023;DHT22;1521;53.584;9.938;2024-02-26T13:02:50;9.10;43.00
3023;DHT22;1521;53.584;9.938;2024-02-26T13:05:17;9.10;34.10
3023;DHT22;1521;53.584;9.938;2024-02-26T13:07:46;9.10;24.00
3023;DHT22;1521;53.584;9.938;2024-02-26T13:10:17;9.20;24.70
3023;DHT22;1521;53.584;9.938;2024-02-26T13:12:48;9.40;25.80
3023;DHT22;1521;53.584;9.938;2024-02-26T13:15:22;9.60;21.90
3023;DHT22;1521;53.584;9.938;2024-02-26T13:17:48;9.60;1.00
3023;DHT22;1521;53.584;9.938;2024-02-26T13:20:28;9.40;2.40
3023;DHT22;1521;53.584;9.938;2024-02-26T13:23:04;9.30;10.00
3023;DHT22;1521;53.584;9.938;2024-02-26T13:25:34;9.30;11.10
3023;DHT22;1521;53.584;9.938;2024-02-26T13:28:12;9.50;23.10
3023;DHT22;1521;53.584;9.938;2024-02-26T13:30:39;9.60;16.10
3023;DHT22;1521;53.584;9.938;2024-02-26T13:33:12;9.70;1.70
3023;DHT22;1521;53.584;9.938;2024-02-26T13:35:38;9.60;1.00
3023;DHT22;1521;53.584;9.938;2024-02-26T13:38:07;9.60;1.00
3023;DHT22;1521;53.584;9.938;2024-02-26T13:40:33;9.50;1.00
3023;DHT22;1521;53.584;9.938;2024-02-26T13:43:00;9.30;1.00
3023;DHT22;1521;53.584;9.938;2024-02-26T13:45:25;9.20;1.00
3023;DHT22;1521;53.584;9.938;2024-02-26T13:47:51;9.20;1.00
3023;DHT22;1521;53.584;9.938;2024-02-26T13:50:16;9.30;1.00
3023;DHT22;1521;53.584;9.938;2024-02-26T13:52:47;9.70;3.60
3023;DHT22;1521;53.584;9.938;2024-02-26T13:55:12;9.90;1.00
3023;DHT22;1521;53.584;9.938;2024-02-26T13:57:39;10.20;1.00
3023;DHT22;1521;53.584;9.938;2024-02-26T14:00:08;10.40;1.00
3023;DHT22;1521;53.584;9.938;2024-02-26T14:02:35;10.50;1.00
3023;DHT22;1521;53.584;9.938;2024-02-26T14:05:02;10.60;1.00
3023;DHT22;1521;53.584;9.938;2024-02-26T14:07:30;10.60;1.00
3023;DHT22;1521;53.584;9.938;2024-02-26T14:09:59;10.50;1.00
3023;DHT22;1521;53.584;9.938;2024-02-26T14:12:25;10.20;1.00
3023;DHT22;1521;53.584;9.938;2024-02-26T14:14:50;10.50;1.00
3023;DHT22;1521;53.584;9.938;2024-02-26T14:17:18;10.60;1.00
3023;DHT22;1521;53.584;9.938;2024-02-26T14:19:44;10.50;1.00
3023;DHT22;1521;53.584;9.938;2024-02-26T14:22:14;10.70;1.00
3023;DHT22;1521;53.584;9.938;2024-02-26T14:24:41;10.70;1.00
3023;DHT22;1521;53.584;9.938;2024-02-26T14:27:08;10.40;1.00
3023;DHT22;1521;53.584;9.938;2024-02-26T14:29:34;10.00;1.00
3023;DHT22;1521;53.584;9.938;2024-02-26T14:32:00;9.50;1.00
3023;DHT22;1521;53.584;9.938;2024-02-26T14:34:27;9.10;1.00
3023;DHT22;1521;53.584;9.938;2024-02-26T14:36:53;8.90;1.00
3023;DHT22;1521;53.584;9.938;2024-02-26T14:39:18;8.80;1.00
3023;DHT22;1521;53.584;9.938;2024-02-26T14:41:44;8.70;1.00
3023;DHT22;1521;53.584;9.938;2024-02-26T14:44:09;8.70;1.00
3023;DHT22;1521;53.584;9.938;2024-02-26T14:46:36;8.70;1.00
3023;DHT22;1521;53.584;9.938;2024-02-26T14:49:02;8.60;1.00
3023;DHT22;1521;53.584;9.938;2024-02-26T14:51:27;8.40;1.00
3023;DHT22;1521;53.584;9.938;2024-02-26T14:53:53;8.30;1.00
3023;DHT22;1521;53.584;9.938;2024-02-26T14:56:18;8.10;1.00
3023;DHT22;1521;53.584;9.938;2024-02-26T14:58:44;8.00;1.00
3023;DHT22;1521;53.584;9.938;2024-02-26T15:01:11;7.80;1.00
3023;DHT22;1521;53.584;9.938;2024-02-26T15:03:37;7.70;1.00
3023;DHT22;1521;53.584;9.938;2024-02-26T15:06:03;7.60;10.00
3023;DHT22;1521;53.584;9.938;2024-02-26T15:08:28;7.60;27.50
3023;DHT22;1521;53.584;9.938;2024-02-26T15:10:54;7.60;40.60
3023;DHT22;1521;53.584;9.938;2024-02-26T15:13:20;7.50;43.60
3023;DHT22;1521;53.584;9.938;2024-02-26T15:15:46;7.40;44.60
3023;DHT22;1521;53.584;9.938;2024-02-26T15:18:11;7.40;56.90
3023;DHT22;1521;53.584;9.938;2024-02-26T15:20:41;7.30;67.10
3023;DHT22;1521;53.584;9.938;2024-02-26T15:23:11;7.20;90.90
3023;DHT22;1521;53.584;9.938;2024-02-26T15:25:37;7.20;98.00
3023;DHT22;1521;53.584;9.938;2024-02-26T15:28:03;7.10;99.90
3023;DHT22;1521;53.584;9.938;2024-02-26T15:30:29;7.00;99.90
3023;DHT22;1521;53.584;9.938;2024-02-26T15:32:55;6.90;99.90
3023;DHT22;1521;53.584;9.938;2024-02-26T15:35:21;6.80;99.90
3023;DHT22;1521;53.584;9.938;2024-02-26T15:37:46;6.90;99.90
3023;DHT22;1521;53.584;9.938;2024-02-26T15:40:12;6.70;99.90
3023;DHT22;1521;53.584;9.938;2024-02-26T15:42:38;6.70;99.90
3023;DHT22;1521;53.584;9.938;2024-02-26T15:45:04;6.60;99.90
3023;DHT22;1521;53.584;9.938;2024-02-26T15:47:30;6.70;99.90
3023;DHT22;1521;53.584;9.938;2024-02-26T15:49:56;6.70;99.90
3023;DHT22;1521;53.584;9.938;2024-02-26T15:52:21;6.70;99.90
3023;DHT22;1521;53.584;9.938;2024-02-26T15:54:47;6.60;99.90
3023;DHT22;1521;53.584;9.938;2024-02-26T15:57:13;6.60;99.90
3023;DHT22;1521;53.584;9.938;2024-02-26T15:59:38;6.50;99.90
3023;DHT22;1521;53.584;9.938;2024-02-26T16:02:04;6.50;99.90
3023;DHT22;1521;53.584;9.938;2024-02-26T16:04:29;6.40;99.90
3023;DHT22;1521;53.584;9.938;2024-02-26T16:06:58;6.40;99.90
3023;DHT22;1521;53.584;9.938;2024-02-26T16:09:25;6.30;99.90
3023;DHT22;1521;53.584;9.938;2024-02-26T16:11:50;6.20;99.90
3023;DHT22;1521;53.584;9.938;2024-02-26T16:17:17;6.10;99.90
3023;DHT22;1521;53.584;9.938;2024-02-26T16:19:43;6.10;99.90
3023;DHT22;1521;53.584;9.938;2024-02-26T16:22:09;6.00;99.90
3023;DHT22;1521;53.584;9.938;2024-02-26T16:24:35;6.00;99.90
3023;DHT22;1521;53.584;9.938;2024-02-26T16:27:00;5.90;99.90